sensor_id;sensor_type;location;lat;lon;timestamp;temperature;humidity
55634;DHT22;41504;53.162;6.788;2023-06-19T00:00:11;22.40;69.40
55634;DHT22;41504;53.162;6.788;2023-06-19T00:02:43;22.40;69.30
55634;DHT22;41504;53.162;6.788;2023-06-19T00:05:09;22.40;69.20
55634;DHT22;41504;53.162;6.788;2023-06-19T00:07:37;22.40;69.20
55634;DHT22;41504;53.162;6.788;2023-06-19T00:10:04;22.40;69.00
55634;DHT22;41504;53.162;6.788;2023-06-19T00:12:33;22.40;68.90
55634;DHT22;41504;53.162;6.788;2023-06-19T00:14:58;22.30;68.80
55634;DHT22;41504;53.162;6.788;2023-06-19T00:17:24;22.30;68.80
55634;DHT22;41504;53.162;6.788;2023-06-19T00:19:52;22.30;68.70
55634;DHT22;41504;53.162;6.788;2023-06-19T00:22:18;22.30;68.60
55634;DHT22;41504;53.162;6.788;2023-06-19T00:24:44;22.30;68.70
55634;DHT22;41504;53.162;6.788;2023-06-19T00:27:10;22.20;68.60
55634;DHT22;41504;53.162;6.788;2023-06-19T00:29:35;22.30;68.50
55634;DHT22;41504;53.162;6.788;2023-06-19T00:32:01;22.20;68.30
55634;DHT22;41504;53.162;6.788;2023-06-19T00:34:29;22.30;68.90
55634;DHT22;41504;53.162;6.788;2023-06-19T00:36:55;22.20;68.20
55634;DHT22;41504;53.162;6.788;2023-06-19T00:39:24;22.20;68.20
55634;DHT22;41504;53.162;6.788;2023-06-19T00:41:54;22.20;68.00
55634;DHT22;41504;53.162;6.788;2023-06-19T00:44:21;22.20;68.00
55634;DHT22;41504;53.162;6.788;2023-06-19T00:46:46;22.20;67.90
55634;DHT22;41504;53.162;6.788;2023-06-19T00:49:13;22.20;67.90
55634;DHT22;41504;53.162;6.788;2023-06-19T00:51:40;22.20;67.80
55634;DHT22;41504;53.162;6.788;2023-06-19T00:54:06;22.20;68.00
55634;DHT22;41504;53.162;6.788;2023-06-19T00:56:32;22.20;68.10
55634;DHT22;41504;53.162;6.788;2023-06-19T00:59:00;22.10;68.00
55634;DHT22;41504;53.162;6.788;2023-06-19T01:01:27;22.10;67.80
55634;DHT22;41504;53.162;6.788;2023-06-19T01:03:54;22.10;67.70
55634;DHT22;41504;53.162;6.788;2023-06-19T01:06:29;22.10;67.40
55634;DHT22;41504;53.162;6.788;2023-06-19T01:09:06;22.10;66.90
55634;DHT22;41504;53.162;6.788;2023-06-19T01:11:42;22.10;66.70
55634;DHT22;41504;53.162;6.788;2023-06-19T01:14:14;22.10;66.40
55634;DHT22;41504;53.162;6.788;2023-06-19T01:16:41;22.10;66.30
55634;DHT22;41504;53.162;6.788;2023-06-19T01:19:10;22.10;66.30
55634;DHT22;41504;53.162;6.788;2023-06-19T01:21:36;22.10;66.10
55634;DHT22;41504;53.162;6.788;2023-06-19T01:24:02;22.10;65.80
55634;DHT22;41504;53.162;6.788;2023-06-19T01:26:28;22.10;65.70
55634;DHT22;41504;53.162;6.788;2023-06-19T01:28:55;22.10;65.50
55634;DHT22;41504;53.162;6.788;2023-06-19T01:31:25;22.10;65.40
55634;DHT22;41504;53.162;6.788;2023-06-19T01:33:52;22.10;65.30
55634;DHT22;41504;53.162;6.788;2023-06-19T01:36:20;22.10;65.20
55634;DHT22;41504;53.162;6.788;2023-06-19T01:38:48;22.10;65.10
55634;DHT22;41504;53.162;6.788;2023-06-19T01:41:15;22.10;65.20
55634;DHT22;41504;53.162;6.788;2023-06-19T01:43:45;22.00;65.20
55634;DHT22;41504;53.162;6.788;2023-06-19T01:46:11;22.00;65.30
55634;DHT22;41504;53.162;6.788;2023-06-19T01:48:38;22.00;65.30
55634;DHT22;41504;53.162;6.788;2023-06-19T01:51:04;22.00;65.30
55634;DHT22;41504;53.162;6.788;2023-06-19T01:53:31;21.90;65.30
55634;DHT22;41504;53.162;6.788;2023-06-19T01:56:00;21.90;65.20
55634;DHT22;41504;53.162;6.788;2023-06-19T01:58:26;21.90;64.90
55634;DHT22;41504;53.162;6.788;2023-06-19T02:00:52;21.90;64.90
55634;DHT22;41504;53.162;6.788;2023-06-19T02:03:21;21.80;64.80
55634;DHT22;41504;53.162;6.788;2023-06-19T02:05:47;21.80;64.80
55634;DHT22;41504;53.162;6.788;2023-06-19T02:08:12;21.80;64.80
55634;DHT22;41504;53.162;6.788;2023-06-19T02:10:38;21.80;64.70
55634;DHT22;41504;53.162;6.788;2023-06-19T02:13:04;21.80;64.40
55634;DHT22;41504;53.162;6.788;2023-06-19T02:15:31;21.70;64.20
55634;DHT22;41504;53.162;6.788;2023-06-19T02:17:57;21.70;64.10
55634;DHT22;41504;53.162;6.788;2023-06-19T02:20:23;21.70;64.10
55634;DHT22;41504;53.162;6.788;2023-06-19T02:22:52;21.70;63.90
55634;DHT22;41504;53.162;6.788;2023-06-19T02:25:18;21.70;63.70
55634;DHT22;41504;53.162;6.788;2023-06-19T02:27:44;21.70;63.30
55634;DHT22;41504;53.162;6.788;2023-06-19T02:30:10;21.80;63.30
55634;DHT22;41504;53.162;6.788;2023-06-19T02:32:36;21.70;63.00
55634;DHT22;41504;53.162;6.788;2023-06-19T02:35:04;21.70;62.70
55634;DHT22;41504;53.162;6.788;2023-06-19T02:37:30;21.70;62.60
55634;DHT22;41504;53.162;6.788;2023-06-19T02:39:55;21.70;62.50
55634;DHT22;41504;53.162;6.788;2023-06-19T02:42:21;21.70;62.30
55634;DHT22;41504;53.162;6.788;2023-06-19T02:44:47;21.80;62.10
55634;DHT22;41504;53.162;6.788;2023-06-19T02:47:13;21.80;62.00
55634;DHT22;41504;53.162;6.788;2023-06-19T02:49:39;21.80;61.70
55634;DHT22;41504;53.162;6.788;2023-06-19T02:52:05;21.80;61.80
55634;DHT22;41504;53.162;6.788;2023-06-19T02:54:31;21.80;61.60
55634;DHT22;41504;53.162;6.788;2023-06-19T02:56:56;21.70;61.60
55634;DHT22;41504;53.162;6.788;2023-06-19T02:59:22;21.70;61.40
55634;DHT22;41504;53.162;6.788;2023-06-19T03:01:48;21.70;61.40
55634;DHT22;41504;53.162;6.788;2023-06-19T03:04:13;21.70;61.50
55634;DHT22;41504;53.162;6.788;2023-06-19T03:06:39;21.70;61.40
55634;DHT22;41504;53.162;6.788;2023-06-19T03:09:08;21.70;61.50
55634;DHT22;41504;53.162;6.788;2023-06-19T03:11:40;21.70;61.50
55634;DHT22;41504;53.162;6.788;2023-06-19T03:14:06;21.60;61.70
55634;DHT22;41504;53.162;6.788;2023-06-19T03:16:34;21.60;61.70
55634;DHT22;41504;53.162;6.788;2023-06-19T03:19:00;21.60;61.70
55634;DHT22;41504;53.162;6.788;2023-06-19T03:21:26;21.60;61.70
55634;DHT22;41504;53.162;6.788;2023-06-19T03:23:52;21.60;61.80
55634;DHT22;41504;53.162;6.788;2023-06-19T03:26:21;21.60;61.80
55634;DHT22;41504;53.162;6.788;2023-06-19T03:28:47;21.50;61.80
55634;DHT22;41504;53.162;6.788;2023-06-19T03:31:14;21.60;61.70
55634;DHT22;41504;53.162;6.788;2023-06-19T03:33:40;21.60;61.60
55634;DHT22;41504;53.162;6.788;2023-06-19T03:36:05;21.60;61.50
55634;DHT22;41504;53.162;6.788;2023-06-19T03:38:31;21.60;61.50
55634;DHT22;41504;53.162;6.788;2023-06-19T03:40:57;21.60;61.50
55634;DHT22;41504;53.162;6.788;2023-06-19T03:43:23;21.60;61.50
55634;DHT22;41504;53.162;6.788;2023-06-19T03:45:48;21.60;61.60
55634;DHT22;41504;53.162;6.788;2023-06-19T03:48:15;21.60;61.60
55634;DHT22;41504;53.162;6.788;2023-06-19T03:50:41;21.50;61.80
55634;DHT22;41504;53.162;6.788;2023-06-19T03:53:07;21.50;61.90
55634;DHT22;41504;53.162;6.788;2023-06-19T03:55:33;21.50;62.00
55634;DHT22;41504;53.162;6.788;2023-06-19T03:57:59;21.60;62.20
55634;DHT22;41504;53.162;6.788;2023-06-19T04:00:25;21.50;62.30
55634;DHT22;41504;53.162;6.788;2023-06-19T04:02:51;21.60;62.40
55634;DHT22;41504;53.162;6.788;2023-06-19T04:05:17;21.50;62.50
55634;DHT22;41504;53.162;6.788;2023-06-19T04:07:43;21.50;62.60
55634;DHT22;41504;53.162;6.788;2023-06-19T04:10:09;21.50;62.70
55634;DHT22;41504;53.162;6.788;2023-06-19T04:12:37;21.50;62.80
55634;DHT22;41504;53.162;6.788;2023-06-19T04:15:03;21.50;63.00
55634;DHT22;41504;53.162;6.788;2023-06-19T04:17:28;21.50;63.10
55634;DHT22;41504;53.162;6.788;2023-06-19T04:19:54;21.50;63.30
55634;DHT22;41504;53.162;6.788;2023-06-19T04:22:20;21.60;63.60
55634;DHT22;41504;53.162;6.788;2023-06-19T04:24:45;21.50;64.50
55634;DHT22;41504;53.162;6.788;2023-06-19T04:27:11;21.50;64.20
55634;DHT22;41504;53.162;6.788;2023-06-19T04:29:37;21.40;64.40
55634;DHT22;41504;53.162;6.788;2023-06-19T04:32:03;21.50;64.80
55634;DHT22;41504;53.162;6.788;2023-06-19T04:34:37;21.50;65.10
55634;DHT22;41504;53.162;6.788;2023-06-19T04:37:08;21.50;65.50
55634;DHT22;41504;53.162;6.788;2023-06-19T04:39:34;21.40;65.80
55634;DHT22;41504;53.162;6.788;2023-06-19T04:42:02;21.40;66.00
55634;DHT22;41504;53.162;6.788;2023-06-19T04:44:27;21.50;66.50
55634;DHT22;41504;53.162;6.788;2023-06-19T04:46:55;21.40;66.80
55634;DHT22;41504;53.162;6.788;2023-06-19T04:49:28;21.50;67.00
55634;DHT22;41504;53.162;6.788;2023-06-19T04:51:56;21.40;67.20
55634;DHT22;41504;53.162;6.788;2023-06-19T04:54:22;21.50;67.40
55634;DHT22;41504;53.162;6.788;2023-06-19T04:56:48;21.50;67.70
55634;DHT22;41504;53.162;6.788;2023-06-19T04:59:13;21.50;67.80
55634;DHT22;41504;53.162;6.788;2023-06-19T05:01:44;21.50;67.80
55634;DHT22;41504;53.162;6.788;2023-06-19T05:04:10;21.60;68.10
55634;DHT22;41504;53.162;6.788;2023-06-19T05:06:40;21.60;68.20
55634;DHT22;41504;53.162;6.788;2023-06-19T05:09:11;21.60;68.40
55634;DHT22;41504;53.162;6.788;2023-06-19T05:11:36;21.60;68.50
55634;DHT22;41504;53.162;6.788;2023-06-19T05:14:02;21.70;68.60
55634;DHT22;41504;53.162;6.788;2023-06-19T05:16:28;21.70;68.70
55634;DHT22;41504;53.162;6.788;2023-06-19T05:18:54;21.70;68.80
55634;DHT22;41504;53.162;6.788;2023-06-19T05:21:20;21.80;69.10
55634;DHT22;41504;53.162;6.788;2023-06-19T05:23:46;21.80;69.10
55634;DHT22;41504;53.162;6.788;2023-06-19T05:26:19;21.80;69.20
55634;DHT22;41504;53.162;6.788;2023-06-19T05:28:46;21.80;69.30
55634;DHT22;41504;53.162;6.788;2023-06-19T05:31:12;21.80;69.30
55634;DHT22;41504;53.162;6.788;2023-06-19T05:33:37;21.80;69.40
55634;DHT22;41504;53.162;6.788;2023-06-19T05:36:03;21.80;69.70
55634;DHT22;41504;53.162;6.788;2023-06-19T05:38:29;21.80;70.30
55634;DHT22;41504;53.162;6.788;2023-06-19T05:40:59;21.80;70.00
55634;DHT22;41504;53.162;6.788;2023-06-19T05:43:25;21.90;70.30
55634;DHT22;41504;53.162;6.788;2023-06-19T05:45:52;21.80;70.40
55634;DHT22;41504;53.162;6.788;2023-06-19T05:48:18;21.80;70.70
55634;DHT22;41504;53.162;6.788;2023-06-19T05:50:44;21.80;70.90
55634;DHT22;41504;53.162;6.788;2023-06-19T05:53:09;21.80;71.10
55634;DHT22;41504;53.162;6.788;2023-06-19T05:55:35;21.70;71.30
55634;DHT22;41504;53.162;6.788;2023-06-19T05:58:02;21.70;71.70
55634;DHT22;41504;53.162;6.788;2023-06-19T06:00:28;21.70;72.10
55634;DHT22;41504;53.162;6.788;2023-06-19T06:02:56;21.70;72.10
55634;DHT22;41504;53.162;6.788;2023-06-19T06:05:25;21.70;72.30
55634;DHT22;41504;53.162;6.788;2023-06-19T06:07:52;21.70;72.50
55634;DHT22;41504;53.162;6.788;2023-06-19T06:10:20;21.70;73.00
55634;DHT22;41504;53.162;6.788;2023-06-19T06:12:46;21.80;73.00
55634;DHT22;41504;53.162;6.788;2023-06-19T06:15:12;21.80;73.10
55634;DHT22;41504;53.162;6.788;2023-06-19T06:17:37;21.80;73.30
55634;DHT22;41504;53.162;6.788;2023-06-19T06:20:03;21.80;73.60
55634;DHT22;41504;53.162;6.788;2023-06-19T06:22:42;21.80;73.70
55634;DHT22;41504;53.162;6.788;2023-06-19T06:25:11;21.70;74.00
55634;DHT22;41504;53.162;6.788;2023-06-19T06:27:37;21.80;74.60
55634;DHT22;41504;53.162;6.788;2023-06-19T06:30:03;21.80;74.70
55634;DHT22;41504;53.162;6.788;2023-06-19T06:32:29;21.70;75.00
55634;DHT22;41504;53.162;6.788;2023-06-19T06:34:57;21.70;75.20
55634;DHT22;41504;53.162;6.788;2023-06-19T06:37:23;21.80;75.30
55634;DHT22;41504;53.162;6.788;2023-06-19T06:39:49;21.80;75.40
55634;DHT22;41504;53.162;6.788;2023-06-19T06:42:15;21.80;75.30
55634;DHT22;41504;53.162;6.788;2023-06-19T06:44:41;21.80;75.30
55634;DHT22;41504;53.162;6.788;2023-06-19T06:47:07;21.80;75.30
55634;DHT22;41504;53.162;6.788;2023-06-19T06:49:32;21.90;75.50
55634;DHT22;41504;53.162;6.788;2023-06-19T06:51:58;21.90;75.40
55634;DHT22;41504;53.162;6.788;2023-06-19T06:54:24;22.00;75.40
55634;DHT22;41504;53.162;6.788;2023-06-19T06:56:50;22.10;75.50
55634;DHT22;41504;53.162;6.788;2023-06-19T06:59:18;22.10;75.70
55634;DHT22;41504;53.162;6.788;2023-06-19T07:01:43;22.10;75.80
55634;DHT22;41504;53.162;6.788;2023-06-19T07:04:09;22.00;76.00
55634;DHT22;41504;53.162;6.788;2023-06-19T07:06:35;22.00;76.30
55634;DHT22;41504;53.162;6.788;2023-06-19T07:09:02;21.90;76.70
55634;DHT22;41504;53.162;6.788;2023-06-19T07:11:27;21.80;77.20
55634;DHT22;41504;53.162;6.788;2023-06-19T07:13:53;21.70;77.70
55634;DHT22;41504;53.162;6.788;2023-06-19T07:16:19;21.70;78.30
55634;DHT22;41504;53.162;6.788;2023-06-19T07:18:44;21.70;79.10
55634;DHT22;41504;53.162;6.788;2023-06-19T07:21:14;21.60;79.80
55634;DHT22;41504;53.162;6.788;2023-06-19T07:23:41;21.40;80.70
55634;DHT22;41504;53.162;6.788;2023-06-19T07:26:09;21.30;80.90
55634;DHT22;41504;53.162;6.788;2023-06-19T07:28:34;21.20;81.20
55634;DHT22;41504;53.162;6.788;2023-06-19T07:31:02;21.20;81.50
55634;DHT22;41504;53.162;6.788;2023-06-19T07:33:28;21.20;82.10
55634;DHT22;41504;53.162;6.788;2023-06-19T07:35:55;21.10;82.20
55634;DHT22;41504;53.162;6.788;2023-06-19T07:38:21;21.10;82.50
55634;DHT22;41504;53.162;6.788;2023-06-19T07:40:47;21.00;82.70
55634;DHT22;41504;53.162;6.788;2023-06-19T07:43:13;20.90;83.00
55634;DHT22;41504;53.162;6.788;2023-06-19T07:45:41;20.90;83.30
55634;DHT22;41504;53.162;6.788;2023-06-19T07:48:07;20.90;83.50
55634;DHT22;41504;53.162;6.788;2023-06-19T07:50:33;20.80;83.60
55634;DHT22;41504;53.162;6.788;2023-06-19T07:52:58;20.90;83.60
55634;DHT22;41504;53.162;6.788;2023-06-19T07:55:24;20.90;83.50
55634;DHT22;41504;53.162;6.788;2023-06-19T07:57:50;20.80;83.20
55634;DHT22;41504;53.162;6.788;2023-06-19T08:00:17;20.80;83.20
55634;DHT22;41504;53.162;6.788;2023-06-19T08:02:43;20.90;83.20
55634;DHT22;41504;53.162;6.788;2023-06-19T08:05:10;20.90;82.90
55634;DHT22;41504;53.162;6.788;2023-06-19T08:07:36;21.00;83.00
55634;DHT22;41504;53.162;6.788;2023-06-19T08:10:02;20.90;82.80
55634;DHT22;41504;53.162;6.788;2023-06-19T08:12:30;20.90;83.00
55634;DHT22;41504;53.162;6.788;2023-06-19T08:14:56;20.90;83.10
55634;DHT22;41504;53.162;6.788;2023-06-19T08:17:21;20.90;83.20
55634;DHT22;41504;53.162;6.788;2023-06-19T08:19:47;20.80;83.20
55634;DHT22;41504;53.162;6.788;2023-06-19T08:22:13;20.80;83.20
55634;DHT22;41504;53.162;6.788;2023-06-19T08:24:39;20.90;83.30
55634;DHT22;41504;53.162;6.788;2023-06-19T08:27:06;20.90;83.10
55634;DHT22;41504;53.162;6.788;2023-06-19T08:29:32;20.80;82.90
55634;DHT22;41504;53.162;6.788;2023-06-19T08:31:58;20.80;82.90
55634;DHT22;41504;53.162;6.788;2023-06-19T08:34:23;20.70;82.90
55634;DHT22;41504;53.162;6.788;2023-06-19T08:36:49;20.70;82.90
55634;DHT22;41504;53.162;6.788;2023-06-19T08:39:15;20.70;83.10
55634;DHT22;41504;53.162;6.788;2023-06-19T08:41:41;20.60;83.10
55634;DHT22;41504;53.162;6.788;2023-06-19T08:44:07;20.60;83.10
55634;DHT22;41504;53.162;6.788;2023-06-19T08:46:36;20.60;83.10
55634;DHT22;41504;53.162;6.788;2023-06-19T08:49:03;20.60;83.00
55634;DHT22;41504;53.162;6.788;2023-06-19T08:51:31;20.60;83.10
55634;DHT22;41504;53.162;6.788;2023-06-19T08:54:03;20.60;83.00
55634;DHT22;41504;53.162;6.788;2023-06-19T08:56:32;20.60;83.40
55634;DHT22;41504;53.162;6.788;2023-06-19T08:59:18;20.60;82.50
55634;DHT22;41504;53.162;6.788;2023-06-19T09:01:51;20.60;81.90
55634;DHT22;41504;53.162;6.788;2023-06-19T09:04:18;20.60;81.90
55634;DHT22;41504;53.162;6.788;2023-06-19T09:06:52;20.60;82.00
55634;DHT22;41504;53.162;6.788;2023-06-19T09:09:19;20.60;81.90
55634;DHT22;41504;53.162;6.788;2023-06-19T09:12:15;20.60;82.00
55634;DHT22;41504;53.162;6.788;2023-06-19T09:17:21;20.70;81.70
55634;DHT22;41504;53.162;6.788;2023-06-19T09:19:51;20.70;81.60
55634;DHT22;41504;53.162;6.788;2023-06-19T09:22:18;20.70;81.30
55634;DHT22;41504;53.162;6.788;2023-06-19T09:24:46;20.70;81.70
55634;DHT22;41504;53.162;6.788;2023-06-19T09:27:13;20.80;81.00
55634;DHT22;41504;53.162;6.788;2023-06-19T09:29:44;20.80;80.30
55634;DHT22;41504;53.162;6.788;2023-06-19T09:34:40;20.90;80.00
55634;DHT22;41504;53.162;6.788;2023-06-19T09:37:07;20.90;79.80
55634;DHT22;41504;53.162;6.788;2023-06-19T09:39:34;21.00;79.20
55634;DHT22;41504;53.162;6.788;2023-06-19T09:42:03;21.00;79.00
55634;DHT22;41504;53.162;6.788;2023-06-19T09:44:31;21.10;78.30
55634;DHT22;41504;53.162;6.788;2023-06-19T09:47:04;21.20;77.90
55634;DHT22;41504;53.162;6.788;2023-06-19T09:49:35;21.40;77.70
55634;DHT22;41504;53.162;6.788;2023-06-19T09:52:01;21.50;77.30
55634;DHT22;41504;53.162;6.788;2023-06-19T09:54:28;21.60;77.00
55634;DHT22;41504;53.162;6.788;2023-06-19T09:56:55;21.60;76.90
55634;DHT22;41504;53.162;6.788;2023-06-19T09:59:24;21.60;76.10
55634;DHT22;41504;53.162;6.788;2023-06-19T10:01:51;21.60;76.00
55634;DHT22;41504;53.162;6.788;2023-06-19T10:04:17;21.60;75.90
55634;DHT22;41504;53.162;6.788;2023-06-19T10:06:45;21.70;75.90
55634;DHT22;41504;53.162;6.788;2023-06-19T10:09:11;21.80;74.70
55634;DHT22;41504;53.162;6.788;2023-06-19T10:11:52;21.90;74.10
55634;DHT22;41504;53.162;6.788;2023-06-19T10:14:19;21.90;73.80
55634;DHT22;41504;53.162;6.788;2023-06-19T10:16:46;22.10;73.60
55634;DHT22;41504;53.162;6.788;2023-06-19T10:19:17;22.30;72.70
55634;DHT22;41504;53.162;6.788;2023-06-19T10:21:53;22.30;72.60
55634;DHT22;41504;53.162;6.788;2023-06-19T10:24:20;22.30;71.20
55634;DHT22;41504;53.162;6.788;2023-06-19T10:27:00;22.30;70.60
55634;DHT22;41504;53.162;6.788;2023-06-19T10:29:26;22.40;70.10
55634;DHT22;41504;53.162;6.788;2023-06-19T10:32:03;22.30;70.40
55634;DHT22;41504;53.162;6.788;2023-06-19T10:34:36;22.40;70.00
55634;DHT22;41504;53.162;6.788;2023-06-19T10:37:02;22.50;69.80
55634;DHT22;41504;53.162;6.788;2023-06-19T10:39:27;22.60;68.80
55634;DHT22;41504;53.162;6.788;2023-06-19T10:41:53;22.60;68.80
55634;DHT22;41504;53.162;6.788;2023-06-19T10:44:19;22.60;69.10
55634;DHT22;41504;53.162;6.788;2023-06-19T10:46:48;22.60;69.50
55634;DHT22;41504;53.162;6.788;2023-06-19T10:49:14;22.60;70.00
55634;DHT22;41504;53.162;6.788;2023-06-19T10:51:41;22.60;70.00
55634;DHT22;41504;53.162;6.788;2023-06-19T10:54:09;22.60;70.20
55634;DHT22;41504;53.162;6.788;2023-06-19T10:56:35;22.70;69.90
55634;DHT22;41504;53.162;6.788;2023-06-19T10:59:09;22.60;69.50
55634;DHT22;41504;53.162;6.788;2023-06-19T11:01:41;22.60;69.40
55634;DHT22;41504;53.162;6.788;2023-06-19T11:04:09;22.50;69.60
55634;DHT22;41504;53.162;6.788;2023-06-19T11:06:37;22.50;69.80
55634;DHT22;41504;53.162;6.788;2023-06-19T11:09:09;22.40;70.10
55634;DHT22;41504;53.162;6.788;2023-06-19T11:11:39;22.40;70.30
55634;DHT22;41504;53.162;6.788;2023-06-19T11:14:05;22.40;70.60
55634;DHT22;41504;53.162;6.788;2023-06-19T11:16:42;22.50;70.30
55634;DHT22;41504;53.162;6.788;2023-06-19T11:19:13;22.50;70.30
55634;DHT22;41504;53.162;6.788;2023-06-19T11:21:39;22.40;70.20
55634;DHT22;41504;53.162;6.788;2023-06-19T11:24:10;22.50;70.90
55634;DHT22;41504;53.162;6.788;2023-06-19T11:26:44;22.40;70.60
55634;DHT22;41504;53.162;6.788;2023-06-19T11:29:24;22.50;70.40
55634;DHT22;41504;53.162;6.788;2023-06-19T11:31:51;22.60;70.60
55634;DHT22;41504;53.162;6.788;2023-06-19T11:34:19;22.70;70.20
55634;DHT22;41504;53.162;6.788;2023-06-19T11:36:45;22.80;69.50
55634;DHT22;41504;53.162;6.788;2023-06-19T11:39:12;22.80;69.50
55634;DHT22;41504;53.162;6.788;2023-06-19T11:41:39;22.90;69.10
55634;DHT22;41504;53.162;6.788;2023-06-19T11:44:06;22.90;69.00
55634;DHT22;41504;53.162;6.788;2023-06-19T11:46:33;23.00;68.70
55634;DHT22;41504;53.162;6.788;2023-06-19T11:49:13;23.00;68.50
55634;DHT22;41504;53.162;6.788;2023-06-19T11:51:39;23.00;68.70
55634;DHT22;41504;53.162;6.788;2023-06-19T11:54:09;23.10;68.30
55634;DHT22;41504;53.162;6.788;2023-06-19T11:56:36;23.20;68.10
55634;DHT22;41504;53.162;6.788;2023-06-19T11:59:02;23.30;68.00
55634;DHT22;41504;53.162;6.788;2023-06-19T12:01:29;23.40;67.70
55634;DHT22;41504;53.162;6.788;2023-06-19T12:03:55;23.40;67.80
55634;DHT22;41504;53.162;6.788;2023-06-19T12:06:21;23.60;66.90
55634;DHT22;41504;53.162;6.788;2023-06-19T12:08:47;23.70;66.40
55634;DHT22;41504;53.162;6.788;2023-06-19T12:11:13;23.80;65.50
55634;DHT22;41504;53.162;6.788;2023-06-19T12:13:42;23.70;65.90
55634;DHT22;41504;53.162;6.788;2023-06-19T12:16:10;23.70;66.00
55634;DHT22;41504;53.162;6.788;2023-06-19T12:18:36;23.70;65.60
55634;DHT22;41504;53.162;6.788;2023-06-19T12:21:02;23.70;65.80
55634;DHT22;41504;53.162;6.788;2023-06-19T12:23:28;23.80;65.80
55634;DHT22;41504;53.162;6.788;2023-06-19T12:25:54;23.70;65.00
55634;DHT22;41504;53.162;6.788;2023-06-19T12:28:19;23.70;65.10
55634;DHT22;41504;53.162;6.788;2023-06-19T12:30:46;23.80;64.90
55634;DHT22;41504;53.162;6.788;2023-06-19T12:33:13;23.70;64.90
55634;DHT22;41504;53.162;6.788;2023-06-19T12:35:40;23.80;64.90
55634;DHT22;41504;53.162;6.788;2023-06-19T12:38:07;23.70;65.10
55634;DHT22;41504;53.162;6.788;2023-06-19T12:40:33;23.70;64.10
55634;DHT22;41504;53.162;6.788;2023-06-19T12:42:59;23.60;65.00
55634;DHT22;41504;53.162;6.788;2023-06-19T12:45:25;23.70;65.20
55634;DHT22;41504;53.162;6.788;2023-06-19T12:47:50;23.70;65.20
55634;DHT22;41504;53.162;6.788;2023-06-19T12:50:19;23.70;65.00
55634;DHT22;41504;53.162;6.788;2023-06-19T12:52:45;23.70;65.10
55634;DHT22;41504;53.162;6.788;2023-06-19T12:55:10;23.80;65.10
55634;DHT22;41504;53.162;6.788;2023-06-19T12:57:36;23.90;63.60
55634;DHT22;41504;53.162;6.788;2023-06-19T13:00:03;23.90;64.00
55634;DHT22;41504;53.162;6.788;2023-06-19T13:02:33;23.90;63.80
55634;DHT22;41504;53.162;6.788;2023-06-19T13:04:59;23.90;63.60
55634;DHT22;41504;53.162;6.788;2023-06-19T13:07:24;24.00;64.00
55634;DHT22;41504;53.162;6.788;2023-06-19T13:09:50;24.00;63.80
55634;DHT22;41504;53.162;6.788;2023-06-19T13:12:16;24.10;63.30
55634;DHT22;41504;53.162;6.788;2023-06-19T13:14:44;24.30;62.90
55634;DHT22;41504;53.162;6.788;2023-06-19T13:17:10;24.40;62.60
55634;DHT22;41504;53.162;6.788;2023-06-19T13:19:35;24.50;62.60
55634;DHT22;41504;53.162;6.788;2023-06-19T13:22:01;24.60;62.60
55634;DHT22;41504;53.162;6.788;2023-06-19T13:24:27;24.70;61.90
55634;DHT22;41504;53.162;6.788;2023-06-19T13:26:53;24.90;61.50
55634;DHT22;41504;53.162;6.788;2023-06-19T13:29:19;25.00;60.90
55634;DHT22;41504;53.162;6.788;2023-06-19T13:31:45;25.00;60.90
55634;DHT22;41504;53.162;6.788;2023-06-19T13:34:11;25.10;59.80
55634;DHT22;41504;53.162;6.788;2023-06-19T13:36:37;25.10;59.70
55634;DHT22;41504;53.162;6.788;2023-06-19T13:39:03;25.10;60.00
55634;DHT22;41504;53.162;6.788;2023-06-19T13:41:30;25.00;59.70
55634;DHT22;41504;53.162;6.788;2023-06-19T13:44:00;24.90;60.00
55634;DHT22;41504;53.162;6.788;2023-06-19T13:46:25;24.90;59.80
55634;DHT22;41504;53.162;6.788;2023-06-19T13:48:52;25.10;59.60
55634;DHT22;41504;53.162;6.788;2023-06-19T13:51:21;25.30;59.10
55634;DHT22;41504;53.162;6.788;2023-06-19T13:53:47;25.40;58.60
55634;DHT22;41504;53.162;6.788;2023-06-19T13:56:13;25.50;58.30
55634;DHT22;41504;53.162;6.788;2023-06-19T13:58:40;25.60;57.90
55634;DHT22;41504;53.162;6.788;2023-06-19T14:01:05;25.60;57.30
55634;DHT22;41504;53.162;6.788;2023-06-19T14:03:31;25.30;57.60
55634;DHT22;41504;53.162;6.788;2023-06-19T14:05:58;25.10;58.30
55634;DHT22;41504;53.162;6.788;2023-06-19T14:08:23;25.00;58.60
55634;DHT22;41504;53.162;6.788;2023-06-19T14:10:50;25.10;58.60
55634;DHT22;41504;53.162;6.788;2023-06-19T14:13:16;25.30;58.30
55634;DHT22;41504;53.162;6.788;2023-06-19T14:15:42;25.40;57.90
55634;DHT22;41504;53.162;6.788;2023-06-19T14:18:08;25.50;58.10
55634;DHT22;41504;53.162;6.788;2023-06-19T14:20:34;25.60;57.40
55634;DHT22;41504;53.162;6.788;2023-06-19T14:22:59;25.80;57.20
55634;DHT22;41504;53.162;6.788;2023-06-19T14:25:25;25.90;56.70
55634;DHT22;41504;53.162;6.788;2023-06-19T14:27:51;25.90;56.80
55634;DHT22;41504;53.162;6.788;2023-06-19T14:30:18;25.80;56.10
55634;DHT22;41504;53.162;6.788;2023-06-19T14:32:44;25.70;56.90
55634;DHT22;41504;53.162;6.788;2023-06-19T14:35:10;25.80;57.30
55634;DHT22;41504;53.162;6.788;2023-06-19T14:37:36;26.00;56.80
55634;DHT22;41504;53.162;6.788;2023-06-19T14:40:02;26.10;55.70
55634;DHT22;41504;53.162;6.788;2023-06-19T14:42:28;26.10;56.00
55634;DHT22;41504;53.162;6.788;2023-06-19T14:44:54;26.30;56.40
55634;DHT22;41504;53.162;6.788;2023-06-19T14:47:20;26.30;55.40
55634;DHT22;41504;53.162;6.788;2023-06-19T14:49:46;26.20;53.80
55634;DHT22;41504;53.162;6.788;2023-06-19T14:52:13;26.10;54.20
55634;DHT22;41504;53.162;6.788;2023-06-19T14:54:39;26.00;54.50
55634;DHT22;41504;53.162;6.788;2023-06-19T14:57:05;26.00;54.60
55634;DHT22;41504;53.162;6.788;2023-06-19T14:59:30;26.00;55.30
55634;DHT22;41504;53.162;6.788;2023-06-19T15:01:56;26.00;55.10
55634;DHT22;41504;53.162;6.788;2023-06-19T15:04:22;26.00;55.40
55634;DHT22;41504;53.162;6.788;2023-06-19T15:06:48;25.90;54.80
55634;DHT22;41504;53.162;6.788;2023-06-19T15:09:14;26.00;54.10
55634;DHT22;41504;53.162;6.788;2023-06-19T15:11:40;26.00;54.50
55634;DHT22;41504;53.162;6.788;2023-06-19T15:14:05;26.10;54.70
55634;DHT22;41504;53.162;6.788;2023-06-19T15:16:31;26.10;54.20
55634;DHT22;41504;53.162;6.788;2023-06-19T15:18:57;26.30;54.20
55634;DHT22;41504;53.162;6.788;2023-06-19T15:21:23;26.30;53.80
55634;DHT22;41504;53.162;6.788;2023-06-19T15:23:53;26.40;53.60
55634;DHT22;41504;53.162;6.788;2023-06-19T15:26:19;26.50;53.20
55634;DHT22;41504;53.162;6.788;2023-06-19T15:28:45;26.70;52.80
55634;DHT22;41504;53.162;6.788;2023-06-19T15:31:13;26.70;51.50
55634;DHT22;41504;53.162;6.788;2023-06-19T15:33:38;26.50;51.90